METAR Data
IDs: Format: Raw Decoded Include TAF

Data at: 1335 UTC 10 Aug 2022

KSBA 101253Z 32003KT 8SM CLR 16/15 A2995 RMK AO2 SLP143 T01610150 $
KSBA 101153Z 13004KT 8SM CLR 17/16 A2995 RMK AO2 SLP141 T01720156 10211 20167 50003 $
KSBA 101053Z 00000KT 10SM CLR 18/16 A2995 RMK AO2 SLP142 T01780156 $
KSBA 100953Z 12004KT 10SM CLR 18/16 A2995 RMK AO2 SLP141 T01830161 $
KSBA 100853Z 12007KT 8SM CLR 18/16 A2994 RMK AO2 SLP138 T01830161 51006 $
KSBA 100753Z 07006KT 10SM CLR 21/15 A2993 RMK AO2 SLP135 T02060150 402780161 $
KSBA 100653Z 09006KT 10SM CLR 21/16 A2994 RMK AO2 SLP137 T02060156 $
KSBA 100553Z 09004KT 10SM CLR 21/17 A2992 RMK AO2 SLP133 T02110167 10267 20194 53014 $
KSBA 100453Z 17004KT 10SM CLR 19/17 A2991 RMK AO2 SLP127 T01940167 $
KSBA 100353Z 16005KT 10SM CLR 20/17 A2988 RMK AO2 SLP119 T02000172 $
KSBA 100253Z 14005KT 10SM CLR 21/17 A2988 RMK AO2 SLP119 T02060172 55002 $
KSBA 100153Z 15006KT 10SM CLR 22/17 A2988 RMK AO2 SLP116 T02170167 $
KSBA 100053Z 15007KT 10SM CLR 23/17 A2988 RMK AO2 SLP119 T02280167 $
KSBA 092353Z 22005KT 10SM CLR 27/16 A2989 RMK AO2 SLP121 T02720156 10278 20222 56014 $
KSBA 092253Z 22005KT 10SM CLR 27/15 A2990 RMK AO2 SLP126 T02670150 $
KSBA 092153Z 23007KT 10SM CLR 27/16 A2991 RMK AO2 SLP129 T02670156 $
KSBA 092053Z VRB04KT 10SM CLR 27/16 A2993 RMK AO2 SLP135 T02670156 58009 $
KSBA 091953Z 20003KT 10SM CLR 23/16 A2994 RMK AO2 SLP139 T02330156 $
KSBA 091853Z 20005KT 10SM CLR 24/16 A2995 RMK AO2 SLP142 T02440156 $
KSBA 091753Z 15007KT 10SM CLR 22/17 A2996 RMK AO2 SLP144 T02220167 10222 20161 51010 $
KSBA 091653Z 16006KT 9SM CLR 21/17 A2995 RMK AO2 SLP142 T02110167 $
KSBA 091553Z 15006KT 9SM CLR 21/17 A2994 RMK AO2 SLP139 T02060167 $
KSBA 091453Z 00000KT 9SM CLR 19/16 A2993 RMK AO2 SLP134 T01890161 50008 $
KSBA 091353Z 03006KT 9SM CLR 18/15 A2993 RMK AO2 SLP134 T01780150 $
KSBA 091253Z 30003KT 9SM CLR 17/15 A2991 RMK AO2 SLP127 T01670150 $
KSBA 091153Z AUTO 00000KT 9SM CLR 16/15 A2990 RMK AO2 SLP126 T01610150 10194 20161 53003 $
KSBA 091053Z AUTO 00000KT 8SM CLR 17/16 A2990 RMK AO2 SLP124 T01720156 $
KSBA 090953Z AUTO 16003KT 8SM CLR 17/16 A2989 RMK AO2 SLP122 T01720156 $
KSBA 090853Z AUTO 00000KT 9SM CLR 19/16 A2990 RMK AO2 SLP123 T01890161 58003 $
KSBA 090753Z AUTO 00000KT 10SM CLR 19/16 A2991 RMK AO2 SLP129 T01890161 402560167 $
KSBA 090653Z AUTO 09004KT 10SM CLR 19/16 A2991 RMK AO2 SLP129 T01890161 $
KSBA 090553Z 11008KT 9SM CLR 19/17 A2991 RMK AO2 SLP126 T01940167 10228 20189 51016 $
KSBA 090453Z 11005KT 10SM CLR 19/17 A2990 RMK AO2 SLP123 T01940167 $
KSBA 090353Z 11007KT 10SM CLR 19/16 A2988 RMK AO2 SLP118 T01940161 $
KSBA 090253Z 13005KT 10SM CLR 20/16 A2986 RMK AO2 SLP110 T02000161 55006 $
KSBA 090153Z 14007KT 9SM CLR 21/17 A2986 RMK AO2 SLP109 T02060167 $